createdAt,value
2023-03-17T00:01:20.903Z,100084.50
2023-03-17T00:03:50.023Z,100099.97
2023-03-17T00:06:18.496Z,100090.25
2023-03-17T00:08:46.584Z,100099.66
2023-03-17T00:11:16.694Z,100094.38
2023-03-17T00:13:44.712Z,100097.34
2023-03-17T00:16:16.015Z,100103.56
2023-03-17T00:18:43.540Z,100101.13
2023-03-17T00:21:12.929Z,100097.81
2023-03-17T00:23:39.880Z,100094.47
2023-03-17T00:26:06.643Z,100094.81
2023-03-17T00:28:33.784Z,100091.19
2023-03-17T00:31:10.638Z,100088.72
2023-03-17T00:33:37.463Z,100096.63
2023-03-17T00:36:04.416Z,100098.59
2023-03-17T00:38:31.587Z,100092.47
2023-03-17T00:40:58.220Z,100106.84
2023-03-17T00:43:24.979Z,100099.22
2023-03-17T00:45:51.584Z,100101.53
2023-03-17T00:48:19.940Z,100110.25
2023-03-17T00:50:48.297Z,100105.00
2023-03-17T00:53:19.066Z,100103.34
2023-03-17T00:55:45.810Z,100098.56
2023-03-17T00:58:14.726Z,100109.25
2023-03-17T01:00:41.554Z,100113.19
2023-03-17T01:03:11.579Z,100117.19
2023-03-17T01:05:39.000Z,100121.13
2023-03-17T01:08:05.801Z,100118.31
2023-03-17T01:10:32.876Z,100114.69
2023-03-17T01:12:59.564Z,100116.66
2023-03-17T01:15:29.094Z,100127.88
2023-03-17T01:17:57.450Z,100129.84
2023-03-17T01:20:28.998Z,100130.16
2023-03-17T01:22:56.105Z,100140.56
2023-03-17T01:25:23.255Z,100141.69
2023-03-17T01:27:50.554Z,100132.47
2023-03-17T01:30:27.794Z,100130.81
2023-03-17T01:32:55.857Z,100117.94
2023-03-17T01:35:23.050Z,100123.53
2023-03-17T01:37:50.793Z,100111.84
2023-03-17T01:40:22.517Z,100111.00
2023-03-17T01:42:54.395Z,100112.69
2023-03-17T01:45:39.675Z,100111.84
2023-03-17T01:48:06.480Z,100110.19
2023-03-17T01:50:33.261Z,100117.44
2023-03-17T01:53:00.287Z,100124.19
2023-03-17T01:55:27.084Z,100116.63
2023-03-17T01:57:54.934Z,100118.91
2023-03-17T02:00:24.368Z,100113.81
2023-03-17T02:02:52.608Z,100107.69
2023-03-17T02:05:21.390Z,100126.47
2023-03-17T02:07:48.048Z,100125.69
2023-03-17T02:10:16.359Z,100119.25
2023-03-17T02:12:44.346Z,100115.56
2023-03-17T02:15:11.712Z,100116.44
2023-03-17T02:17:38.453Z,100128.75
2023-03-17T02:20:17.413Z,100109.16
2023-03-17T02:22:45.090Z,100100.75
2023-03-17T02:25:14.212Z,100101.06
2023-03-17T02:27:49.611Z,100102.72
2023-03-17T02:30:22.047Z,100098.25
2023-03-17T02:32:48.703Z,100098.78
2023-03-17T02:35:15.725Z,100106.34
2023-03-17T02:37:43.890Z,100110.28
2023-03-17T02:40:11.529Z,100106.16
2023-03-17T02:42:39.593Z,100104.50
2023-03-17T02:45:07.347Z,100106.16
2023-03-17T02:47:33.966Z,100107.31
2023-03-17T02:50:00.634Z,100113.22
2023-03-17T02:52:28.047Z,100109.59
2023-03-17T02:54:54.786Z,100108.75
2023-03-17T02:57:21.685Z,100103.50
2023-03-17T02:59:48.396Z,100102.34
2023-03-17T03:02:15.021Z,100108.28
2023-03-17T03:04:42.166Z,100104.63
2023-03-17T03:07:09.363Z,100107.44
2023-03-17T03:09:36.913Z,100110.25
2023-03-17T03:12:03.833Z,100101.31
2023-03-17T03:14:30.698Z,100096.06
2023-03-17T03:16:57.364Z,100081.72
2023-03-17T03:19:24.545Z,100081.22
2023-03-17T03:21:51.344Z,100086.81
2023-03-17T03:24:17.969Z,100084.03
2023-03-17T03:26:44.628Z,100084.84
2023-03-17T03:29:11.235Z,100085.16
2023-03-17T03:31:38.018Z,100080.41
2023-03-17T03:34:04.650Z,100073.97
2023-03-17T03:36:31.375Z,100074.78
2023-03-17T03:38:58.424Z,100079.88
2023-03-17T03:41:25.100Z,100072.31
2023-03-17T03:43:52.482Z,100072.31
2023-03-17T03:46:19.319Z,100067.88
2023-03-17T03:48:45.959Z,100070.03
2023-03-17T03:51:12.605Z,100073.97
2023-03-17T03:53:39.232Z,100075.09
2023-03-17T03:56:06.221Z,100075.09
2023-03-17T03:58:32.863Z,100072.81
2023-03-17T04:00:59.519Z,100077.91
2023-03-17T04:03:26.179Z,100079.56
2023-03-17T04:05:52.879Z,100088.28
2023-03-17T04:08:19.564Z,100081.88
2023-03-17T04:10:46.549Z,100077.91
2023-03-17T04:13:23.547Z,100074.28
2023-03-17T04:15:50.472Z,100059.47
2023-03-17T04:18:17.216Z,100070.69
2023-03-17T04:20:43.826Z,100065.06
2023-03-17T04:23:10.885Z,100071.47
2023-03-17T04:25:38.352Z,100069.84
2023-03-17T04:28:05.239Z,100064.25
2023-03-17T04:30:32.789Z,100061.75
2023-03-17T04:33:01.447Z,100061.75
2023-03-17T04:35:28.235Z,100064.03
2023-03-17T04:37:54.885Z,100064.03
2023-03-17T04:40:21.650Z,100075.25
2023-03-17T04:42:48.415Z,100073.63
2023-03-17T04:45:15.812Z,100073.63
2023-03-17T04:47:42.828Z,100078.38
2023-03-17T04:50:10.638Z,100067.19
2023-03-17T04:52:37.601Z,100063.56
2023-03-17T04:55:05.352Z,100073.63
2023-03-17T04:57:32.140Z,100069.47
2023-03-17T04:59:58.873Z,100065.53
2023-03-17T05:02:26.454Z,100065.69
2023-03-17T05:04:53.699Z,100067.34
2023-03-17T05:07:20.313Z,100073.78
2023-03-17T05:09:47.700Z,100076.28
2023-03-17T05:12:14.510Z,100078.25
2023-03-17T05:14:41.795Z,100082.50
2023-03-17T05:17:08.635Z,100098.81
2023-03-17T05:19:35.638Z,100097.16
2023-03-17T05:22:02.296Z,100099.13
2023-03-17T05:24:28.945Z,100095.81
2023-03-17T05:26:55.586Z,100095.31
2023-03-17T05:29:22.656Z,100100.91
2023-03-17T05:31:49.322Z,100096.44
2023-03-17T05:34:16.224Z,100104.03
2023-03-17T05:36:43.730Z,100101.22
2023-03-17T05:39:11.891Z,100097.59
2023-03-17T05:41:39.451Z,100097.59
2023-03-17T05:44:06.793Z,100086.72
2023-03-17T05:46:33.449Z,100089.53
2023-03-17T05:49:00.113Z,100092.00
2023-03-17T05:51:27.845Z,100089.53
2023-03-17T05:53:54.597Z,100085.56
2023-03-17T05:56:22.100Z,100093.16
2023-03-17T05:58:49.128Z,100096.28
2023-03-17T06:01:15.865Z,100101.88
2023-03-17T06:03:42.749Z,100095.63
2023-03-17T06:06:09.574Z,100096.84
2023-03-17T06:08:36.208Z,100101.16
2023-03-17T06:11:02.858Z,100098.22
2023-03-17T06:13:29.509Z,100111.25
2023-03-17T06:15:57.637Z,100111.13
2023-03-17T06:18:24.446Z,100097.66
2023-03-17T06:20:51.187Z,100106.72
2023-03-17T06:23:27.987Z,100103.78
2023-03-17T06:25:54.663Z,100101.69
2023-03-17T06:28:21.306Z,100084.72
2023-03-17T06:30:48.093Z,100091.03
2023-03-17T06:33:22.291Z,100088.56
2023-03-17T06:35:48.966Z,100095.69
2023-03-17T06:38:15.596Z,100103.59
2023-03-17T06:40:42.554Z,100105.13
2023-03-17T06:43:09.614Z,100104.97
2023-03-17T06:45:36.272Z,100097.72
2023-03-17T06:48:03.035Z,100096.44
2023-03-17T06:50:29.954Z,100089.53
2023-03-17T06:52:56.825Z,100090.16
2023-03-17T06:55:23.504Z,100092.53
2023-03-17T06:57:51.502Z,100094.03
2023-03-17T07:00:18.886Z,100091.41
2023-03-17T07:03:00.970Z,100090.06
2023-03-17T07:05:40.098Z,100109.91
2023-03-17T07:08:10.347Z,100101.31
2023-03-17T07:10:37.445Z,100099.16
2023-03-17T07:13:06.234Z,100100.50
2023-03-17T07:15:35.494Z,100099.50
2023-03-17T07:18:02.465Z,100086.78
2023-03-17T07:20:29.154Z,100079.34
2023-03-17T07:22:55.913Z,100080.00
2023-03-17T07:25:22.742Z,100084.63
2023-03-17T07:27:49.653Z,100093.53
2023-03-17T07:30:19.425Z,100111.19
2023-03-17T07:32:46.997Z,100100.31
2023-03-17T07:35:15.689Z,100111.69
2023-03-17T07:37:42.729Z,100107.38
2023-03-17T07:40:10.411Z,100111.69
2023-03-17T07:42:37.207Z,100117.00
2023-03-17T07:45:06.121Z,100121.78
2023-03-17T07:47:32.817Z,100110.56
2023-03-17T07:49:59.639Z,100110.38
2023-03-17T07:52:26.392Z,100113.69
2023-03-17T07:54:56.476Z,100116.19
2023-03-17T07:57:23.719Z,100104.13
2023-03-17T07:59:50.978Z,100116.50
2023-03-17T08:02:18.315Z,100119.31
2023-03-17T08:04:45.834Z,100138.44
2023-03-17T08:07:13.093Z,100148.88
2023-03-17T08:09:40.560Z,100155.28
2023-03-17T08:12:07.267Z,100161.25
2023-03-17T08:14:33.990Z,100157.63
2023-03-17T08:17:00.824Z,100161.91
2023-03-17T08:19:27.522Z,100159.44
2023-03-17T08:21:54.119Z,100158.59
2023-03-17T08:24:21.144Z,100157.94
2023-03-17T08:26:49.394Z,100155.13
2023-03-17T08:29:16.350Z,100155.13
2023-03-17T08:31:45.270Z,100150.50
2023-03-17T08:34:13.189Z,100153.97
2023-03-17T08:36:39.816Z,100159.44
2023-03-17T08:39:06.681Z,100155.28
2023-03-17T08:41:33.491Z,100154.81
2023-03-17T08:44:00.344Z,100155.97
2023-03-17T08:46:29.060Z,100164.69
2023-03-17T08:48:56.782Z,100155.47
2023-03-17T08:51:25.208Z,100150.50
2023-03-17T08:53:52.110Z,100152.47
2023-03-17T08:56:18.781Z,100153.66
2023-03-17T08:58:46.119Z,100150.34
2023-03-17T09:01:12.921Z,100142.59
2023-03-17T09:03:41.014Z,100137.28
2023-03-17T09:06:09.846Z,100143.22
2023-03-17T09:08:40.156Z,100157.25
2023-03-17T09:11:07.658Z,100159.75
2023-03-17T09:13:35.399Z,100164.69
2023-03-17T09:16:02.883Z,100164.88
2023-03-17T09:18:31.488Z,100158.59
2023-03-17T09:20:58.292Z,100162.09
2023-03-17T09:23:28.712Z,100165.06
2023-03-17T09:26:39.875Z,100169.31
2023-03-17T09:29:07.886Z,100168.84
2023-03-17T09:31:37.052Z,100173.47
2023-03-17T09:34:05.313Z,100178.44
2023-03-17T09:36:33.556Z,100169.34
2023-03-17T09:39:00.826Z,100159.75
2023-03-17T09:41:45.422Z,100156.31
2023-03-17T09:44:19.140Z,100155.16
2023-03-17T09:46:54.265Z,100143.56
2023-03-17T09:49:25.500Z,100142.94
2023-03-17T09:51:53.404Z,100142.94
2023-03-17T09:54:23.150Z,100150.69
2023-03-17T09:56:55.118Z,100147.56
2023-03-17T09:59:33.464Z,100150.34
2023-03-17T10:02:00.373Z,100155.34
2023-03-17T10:04:28.321Z,100155.81
2023-03-17T10:07:04.271Z,100165.91
2023-03-17T10:09:44.114Z,100156.63
2023-03-17T10:12:17.581Z,100162.25
2023-03-17T10:14:44.806Z,100160.28
2023-03-17T10:17:17.923Z,100171.88
2023-03-17T10:19:47.804Z,100163.44
2023-03-17T10:22:17.921Z,100171.03
2023-03-17T10:24:47.121Z,100165.75
2023-03-17T10:27:15.694Z,100167.22
2023-03-17T10:29:42.536Z,100164.72
2023-03-17T10:32:13.411Z,100157.78
2023-03-17T10:34:42.281Z,100167.03
2023-03-17T10:37:19.049Z,100168.53
2023-03-17T10:39:50.752Z,100170.00
2023-03-17T10:42:25.076Z,100169.53
2023-03-17T10:44:57.052Z,100179.09
2023-03-17T10:47:40.650Z,100176.13
2023-03-17T10:50:17.053Z,100177.59
2023-03-17T10:52:46.850Z,100172.34
2023-03-17T10:55:20.677Z,100171.81
2023-03-17T10:57:51.313Z,100173.31
2023-03-17T11:00:22.521Z,100178.94
2023-03-17T11:02:57.910Z,100175.63
2023-03-17T11:05:26.873Z,100166.38
2023-03-17T11:08:07.706Z,100177.13
2023-03-17T11:10:37.202Z,100176.28
2023-03-17T11:13:04.222Z,100174.63
2023-03-17T11:15:36.060Z,100172.13
2023-03-17T11:18:12.597Z,100171.34
2023-03-17T11:20:51.784Z,100168.03
2023-03-17T11:23:26.699Z,100165.53
2023-03-17T11:26:17.740Z,100176.28
2023-03-17T11:28:48.356Z,100176.28
2023-03-17T11:31:24.064Z,100170.50
2023-03-17T11:34:08.932Z,100163.22
2023-03-17T11:36:50.675Z,100166.34
2023-03-17T11:39:20.923Z,100169.16
2023-03-17T11:41:56.429Z,100175.94
2023-03-17T11:44:38.732Z,100157.94
2023-03-17T11:47:23.759Z,100155.63
2023-03-17T11:50:03.370Z,100160.59
2023-03-17T11:52:38.936Z,100161.56
2023-03-17T11:55:06.073Z,100164.22
2023-03-17T11:57:33.139Z,100176.13
2023-03-17T12:00:06.323Z,100183.22
2023-03-17T12:02:37.026Z,100179.09
2023-03-17T12:05:12.538Z,100174.16
2023-03-17T12:07:44.816Z,100170.03
2023-03-17T12:10:14.264Z,100169.84
2023-03-17T12:12:46.853Z,100171.66
2023-03-17T12:15:21.403Z,100173.16
2023-03-17T12:18:04.562Z,100181.75
2023-03-17T12:20:38.110Z,100177.94
2023-03-17T12:23:29.665Z,100182.56
2023-03-17T12:25:59.875Z,100189.16
2023-03-17T12:28:30.629Z,100180.91
2023-03-17T12:31:06.016Z,100173.47
2023-03-17T12:33:47.240Z,100164.34
2023-03-17T12:36:18.829Z,100157.72
2023-03-17T12:38:51.693Z,100159.84
2023-03-17T12:41:27.157Z,100162.50
2023-03-17T12:43:53.910Z,100149.25
2023-03-17T12:46:59.169Z,100149.91
2023-03-17T12:49:31.930Z,100148.06
2023-03-17T12:51:58.559Z,100159.47
2023-03-17T12:54:29.057Z,100155.66
2023-03-17T12:57:02.422Z,100155.81
2023-03-17T12:59:31.381Z,100153.19
2023-03-17T13:02:06.340Z,100150.84
2023-03-17T13:04:49.089Z,100135.63
2023-03-17T13:07:36.209Z,100140.56
2023-03-17T13:10:03.038Z,100148.34
2023-03-17T13:12:56.032Z,100139.09
2023-03-17T13:15:25.452Z,100135.59
2023-03-17T13:17:53.276Z,100136.41
2023-03-17T13:20:21.057Z,100128.47
2023-03-17T13:23:03.287Z,100120.84
2023-03-17T13:25:33.920Z,100131.28
2023-03-17T13:28:12.955Z,100120.03
2023-03-17T13:30:39.691Z,100120.03
2023-03-17T13:33:13.852Z,100122.00
2023-03-17T13:35:47.865Z,100117.53
2023-03-17T13:38:14.488Z,100115.56
2023-03-17T13:40:49.376Z,100117.22
2023-03-17T13:43:34.846Z,100113.56
2023-03-17T13:46:20.204Z,100116.38
2023-03-17T13:48:47.342Z,100105.47
2023-03-17T13:51:22.523Z,100112.25
2023-03-17T13:53:51.704Z,100117.03
2023-03-17T13:56:23.215Z,100113.63
2023-03-17T13:59:01.855Z,100111.63
2023-03-17T14:01:30.362Z,100103.53
2023-03-17T14:03:57.185Z,100113.94
2023-03-17T14:06:28.300Z,100103.03
2023-03-17T14:08:57.779Z,100113.81
2023-03-17T14:11:28.044Z,100110.13
2023-03-17T14:13:54.644Z,100099.91
2023-03-17T14:16:32.795Z,100095.75
2023-03-17T14:19:11.445Z,100094.78
2023-03-17T14:21:38.525Z,100098.78
2023-03-17T14:24:18.066Z,100099.59
2023-03-17T14:26:47.563Z,100094.31
2023-03-17T14:29:19.098Z,100087.03
2023-03-17T14:31:52.892Z,100088.69
2023-03-17T14:34:22.076Z,100082.38
2023-03-17T14:36:48.905Z,100082.19
2023-03-17T14:39:24.003Z,100085.97
2023-03-17T14:42:03.272Z,100089.47
2023-03-17T14:44:36.918Z,100090.94
2023-03-17T14:47:04.950Z,100085.44
2023-03-17T14:49:33.503Z,100096.84
2023-03-17T14:52:01.089Z,100092.88
2023-03-17T14:54:31.396Z,100086.53
2023-03-17T14:57:05.470Z,100102.72
2023-03-17T14:59:37.081Z,100095.63
2023-03-17T15:02:16.427Z,100092.47
2023-03-17T15:04:59.309Z,100092.94
2023-03-17T15:07:30.515Z,100101.06
2023-03-17T15:10:03.820Z,100102.72
2023-03-17T15:12:31.328Z,100096.72
2023-03-17T15:15:00.531Z,100092.75
2023-03-17T15:17:37.158Z,100093.56
2023-03-17T15:20:06.552Z,100085.97
2023-03-17T15:22:42.230Z,100083.97
2023-03-17T15:25:21.249Z,100088.78
2023-03-17T15:27:48.025Z,100079.19
2023-03-17T15:30:15.203Z,100078.34
2023-03-17T15:32:41.898Z,100075.88
2023-03-17T15:35:11.563Z,100068.59
2023-03-17T15:37:38.258Z,100071.59
2023-03-17T15:40:06.043Z,100082.00
2023-03-17T15:42:34.501Z,100073.81
2023-03-17T15:45:01.682Z,100075.78
2023-03-17T15:47:32.305Z,100072.28
2023-03-17T15:50:07.018Z,100074.78
2023-03-17T15:52:33.705Z,100064.81
2023-03-17T15:55:00.404Z,100074.91
2023-03-17T15:57:27.536Z,100075.59
2023-03-17T15:59:54.206Z,100082.72
2023-03-17T16:02:34.141Z,100095.13
2023-03-17T16:05:02.526Z,100091.47
2023-03-17T16:07:31.032Z,100097.81
2023-03-17T16:09:57.877Z,100086.41
2023-03-17T16:12:24.710Z,100081.47
2023-03-17T16:14:51.732Z,100081.31
2023-03-17T16:17:28.985Z,100081.16
2023-03-17T16:20:00.346Z,100083.50
2023-03-17T16:22:38.393Z,100085.34
2023-03-17T16:25:07.964Z,100081.41
2023-03-17T16:27:34.621Z,100082.56
2023-03-17T16:30:01.301Z,100081.75
2023-03-17T16:32:28.209Z,100081.09
2023-03-17T16:34:55.120Z,100081.91
2023-03-17T16:37:21.807Z,100085.38
2023-03-17T16:39:52.374Z,100090.19
2023-03-17T16:42:23.438Z,100080.13
2023-03-17T16:44:50.699Z,100086.91
2023-03-17T16:47:17.402Z,100089.56
2023-03-17T16:49:44.060Z,100093.53
2023-03-17T16:52:12.498Z,100096.66
2023-03-17T16:54:39.247Z,100095.00
2023-03-17T16:57:07.847Z,100098.84
2023-03-17T16:59:34.751Z,100106.94
2023-03-17T17:02:02.265Z,100101.31
2023-03-17T17:04:28.990Z,100101.19
2023-03-17T17:06:56.911Z,100107.94
2023-03-17T17:09:23.787Z,100112.59
2023-03-17T17:11:50.462Z,100119.38
2023-03-17T17:14:17.209Z,100117.25
2023-03-17T17:16:44.126Z,100125.19
2023-03-17T17:19:14.661Z,100121.53
2023-03-17T17:21:41.284Z,100129.00
2023-03-17T17:24:11.635Z,100131.16
2023-03-17T17:26:38.442Z,100122.69
2023-03-17T17:29:05.330Z,100132.25
2023-03-17T17:31:33.138Z,100142.50
2023-03-17T17:34:00.128Z,100139.50
2023-03-17T17:36:27.059Z,100134.53
2023-03-17T17:38:53.815Z,100142.28
2023-03-17T17:41:21.850Z,100151.69
2023-03-17T17:43:48.803Z,100146.56
2023-03-17T17:46:19.721Z,100155.47
2023-03-17T17:48:46.519Z,100155.63
2023-03-17T17:51:27.686Z,100170.53
2023-03-17T17:53:54.587Z,100162.94
2023-03-17T17:56:21.648Z,100158.13
2023-03-17T17:58:48.507Z,100165.41
2023-03-17T18:01:19.938Z,100160.13
2023-03-17T18:03:47.770Z,100152.19
2023-03-17T18:06:14.543Z,100169.88
2023-03-17T18:08:41.628Z,100167.72
2023-03-17T18:11:09.848Z,100159.78
2023-03-17T18:13:39.240Z,100166.56
2023-03-17T18:16:10.102Z,100160.13
2023-03-17T18:18:43.032Z,100171.38
2023-03-17T18:21:10.007Z,100171.38
2023-03-17T18:23:37.023Z,100187.41
2023-03-17T18:26:04.408Z,100188.88
2023-03-17T18:28:31.317Z,100186.06
2023-03-17T18:31:02.204Z,100190.03
2023-03-17T18:33:28.880Z,100185.94
2023-03-17T18:35:55.924Z,100187.09
2023-03-17T18:38:22.720Z,100192.72
2023-03-17T18:40:49.530Z,100189.41
2023-03-17T18:43:24.911Z,100196.53
2023-03-17T18:45:51.872Z,100194.88
2023-03-17T18:48:19.535Z,100196.38
2023-03-17T18:50:47.208Z,100198.69
2023-03-17T18:53:13.924Z,100201.34
2023-03-17T18:55:42.148Z,100200.53
2023-03-17T18:58:09.331Z,100195.06
2023-03-17T19:00:36.513Z,100194.75
2023-03-17T19:03:03.322Z,100198.22
2023-03-17T19:05:30.678Z,100191.28
2023-03-17T19:07:58.113Z,100197.59
2023-03-17T19:10:24.850Z,100198.22
2023-03-17T19:12:52.304Z,100196.09
2023-03-17T19:15:19.822Z,100201.84
2023-03-17T19:17:47.290Z,100197.41
2023-03-17T19:20:15.568Z,100198.41
2023-03-17T19:22:42.280Z,100205.66
2023-03-17T19:25:09.410Z,100196.59
2023-03-17T19:27:36.387Z,100191.97
2023-03-17T19:30:03.162Z,100193.97
2023-03-17T19:32:29.871Z,100202.56
2023-03-17T19:34:56.729Z,100187.19
2023-03-17T19:37:23.379Z,100197.59
2023-03-17T19:39:50.052Z,100203.06
2023-03-17T19:42:17.622Z,100195.31
2023-03-17T19:44:44.240Z,100200.41
2023-03-17T19:47:11.384Z,100195.63
2023-03-17T19:49:38.179Z,100197.13
2023-03-17T19:52:05.594Z,100196.97
2023-03-17T19:54:32.399Z,100194.81
2023-03-17T19:56:59.116Z,100196.78
2023-03-17T19:59:25.776Z,100192.69
2023-03-17T20:01:52.669Z,100198.63
2023-03-17T20:04:21.066Z,100205.75
2023-03-17T20:06:47.761Z,100208.03
2023-03-17T20:09:14.454Z,100215.97
2023-03-17T20:11:41.570Z,100207.88
2023-03-17T20:14:08.268Z,100215.75
2023-03-17T20:16:36.339Z,100220.06
2023-03-17T20:19:03.846Z,100223.19
2023-03-17T20:21:31.381Z,100219.09
2023-03-17T20:23:58.046Z,100229.50
2023-03-17T20:26:24.749Z,100230.63
2023-03-17T20:28:51.870Z,100235.78
2023-03-17T20:31:18.821Z,100232.44
2023-03-17T20:33:46.721Z,100223.88
2023-03-17T20:36:14.233Z,100237.09
2023-03-17T20:38:41.269Z,100228.16
2023-03-17T20:41:13.047Z,100233.75
2023-03-17T20:43:40.527Z,100236.09
2023-03-17T20:46:10.950Z,100231.94
2023-03-17T20:48:37.860Z,100227.81
2023-03-17T20:51:06.425Z,100230.63
2023-03-17T20:53:33.653Z,100229.31
2023-03-17T20:56:00.521Z,100234.94
2023-03-17T20:58:27.945Z,100237.22
2023-03-17T21:00:55.361Z,100238.38
2023-03-17T21:03:25.174Z,100235.09
2023-03-17T21:05:53.643Z,100239.03
2023-03-17T21:08:20.302Z,100231.75
2023-03-17T21:10:46.951Z,100224.84
2023-03-17T21:13:13.555Z,100241.34
2023-03-17T21:15:41.297Z,100240.03
2023-03-17T21:18:08.166Z,100237.03
2023-03-17T21:20:35.164Z,100235.38
2023-03-17T21:23:04.706Z,100239.03
2023-03-17T21:25:31.531Z,100239.84
2023-03-17T21:27:58.283Z,100227.28
2023-03-17T21:30:25.050Z,100226.13
2023-03-17T21:32:51.872Z,100219.22
2023-03-17T21:35:18.609Z,100217.88
2023-03-17T21:37:45.403Z,100223.00
2023-03-17T21:40:13.273Z,100220.81
2023-03-17T21:42:40.928Z,100213.56
2023-03-17T21:45:08.014Z,100211.09
2023-03-17T21:47:36.483Z,100203.81
2023-03-17T21:50:04.256Z,100209.25
2023-03-17T21:52:31.224Z,100206.47
2023-03-17T21:54:58.602Z,100221.63
2023-03-17T21:57:25.619Z,100221.94
2023-03-17T21:59:52.266Z,100230.72
2023-03-17T22:02:19.007Z,100222.94
2023-03-17T22:04:47.025Z,100232.53
2023-03-17T22:07:13.825Z,100234.81
2023-03-17T22:09:40.494Z,100225.56
2023-03-17T22:12:07.389Z,100227.88
2023-03-17T22:14:35.787Z,100236.63
2023-03-17T22:17:03.320Z,100237.47
2023-03-17T22:19:30.066Z,100248.25
2023-03-17T22:21:56.878Z,100238.97
2023-03-17T22:24:23.632Z,100253.19
2023-03-17T22:26:50.272Z,100245.75
2023-03-17T22:29:17.186Z,100253.38
2023-03-17T22:31:43.895Z,100259.66
2023-03-17T22:34:10.706Z,100251.59
2023-03-17T22:36:37.677Z,100249.13
2023-03-17T22:39:05.186Z,100260.38
2023-03-17T22:41:31.855Z,100255.75
2023-03-17T22:43:58.548Z,100258.09
2023-03-17T22:46:25.278Z,100252.13
2023-03-17T22:48:52.710Z,100264.38
2023-03-17T22:51:21.145Z,100272.50
2023-03-17T22:53:48.272Z,100265.06
2023-03-17T22:56:16.034Z,100263.22
2023-03-17T22:58:43.517Z,100265.06
2023-03-17T23:01:12.448Z,100262.41
2023-03-17T23:03:39.593Z,100265.88
2023-03-17T23:06:07.309Z,100262.06
2023-03-17T23:08:36.221Z,100268.69
2023-03-17T23:11:05.880Z,100263.72
2023-03-17T23:13:32.600Z,100256.28
2023-03-17T23:15:59.616Z,100269.34
2023-03-17T23:18:26.274Z,100265.53
2023-03-17T23:20:53.580Z,100262.88
2023-03-17T23:23:22.729Z,100263.06
2023-03-17T23:25:49.356Z,100268.00
2023-03-17T23:28:16.257Z,100257.75
2023-03-17T23:30:47.612Z,100264.69
2023-03-17T23:33:23.952Z,100266.84
2023-03-17T23:35:51.632Z,100262.19
2023-03-17T23:38:19.716Z,100255.56
2023-03-17T23:40:46.904Z,100254.09
2023-03-17T23:43:13.865Z,100248.66
2023-03-17T23:45:41.508Z,100252.44
2023-03-17T23:48:09.209Z,100248.78
2023-03-17T23:50:36.183Z,100258.53
2023-03-17T23:53:03.007Z,100252.25
2023-03-17T23:55:30.002Z,100252.72
2023-03-17T23:57:56.665Z,100252.41
